createdAt,value
2022-12-24T00:01:07.616Z,88.90
2022-12-24T00:03:36.106Z,89.18
2022-12-24T00:06:05.764Z,90.10
2022-12-24T00:08:33.534Z,90.24
2022-12-24T00:11:01.150Z,90.32
2022-12-24T00:13:30.163Z,89.37
2022-12-24T00:15:57.690Z,89.77
2022-12-24T00:18:25.651Z,90.06
2022-12-24T00:20:53.650Z,89.24
2022-12-24T00:23:21.566Z,89.11
2022-12-24T00:25:49.141Z,89.58
2022-12-24T00:28:17.792Z,89.71
2022-12-24T00:30:46.783Z,89.89
2022-12-24T00:33:17.123Z,90.08
2022-12-24T00:35:52.776Z,89.32
2022-12-24T00:38:20.313Z,87.84
2022-12-24T00:40:47.920Z,87.05
2022-12-24T00:43:15.458Z,86.52
2022-12-24T00:45:42.975Z,85.90
2022-12-24T00:48:11.809Z,85.75
2022-12-24T00:50:39.430Z,85.66
2022-12-24T00:53:06.988Z,86.06
2022-12-24T00:55:34.452Z,86.26
2022-12-24T00:58:02.025Z,86.42
2022-12-24T01:00:29.742Z,85.35
2022-12-24T01:02:57.520Z,85.50
2022-12-24T01:05:25.639Z,85.52
2022-12-24T01:07:53.929Z,85.60
2022-12-24T01:10:21.923Z,86.05
2022-12-24T01:12:49.493Z,85.48
2022-12-24T01:15:17.019Z,85.18
2022-12-24T01:17:44.564Z,85.42
2022-12-24T01:20:15.667Z,85.60
2022-12-24T01:22:44.907Z,85.77
2022-12-24T01:25:12.818Z,85.48
2022-12-24T01:27:40.383Z,85.05
2022-12-24T01:30:12.248Z,84.90
2022-12-24T01:32:39.781Z,85.55
2022-12-24T01:35:08.111Z,84.77
2022-12-24T01:37:35.703Z,84.31
2022-12-24T01:40:23.210Z,84.86
2022-12-24T01:43:08.671Z,85.06
2022-12-24T01:45:43.634Z,85.08
2022-12-24T01:48:17.318Z,85.03
2022-12-24T01:50:45.797Z,85.48
2022-12-24T01:53:15.673Z,85.59
2022-12-24T01:55:46.834Z,85.56
2022-12-24T01:58:17.220Z,85.61
2022-12-24T02:00:46.089Z,85.11
2022-12-24T02:03:13.975Z,84.73
2022-12-24T02:05:47.845Z,84.96
2022-12-24T02:08:16.117Z,84.66
2022-12-24T02:10:45.090Z,85.20
2022-12-24T02:13:14.172Z,84.58
2022-12-24T02:15:57.076Z,84.26
2022-12-24T02:18:34.048Z,84.42
2022-12-24T02:21:35.065Z,84.88
2022-12-24T02:24:27.369Z,85.70
2022-12-24T02:27:13.914Z,85.84
2022-12-24T02:30:00.875Z,85.96
2022-12-24T02:32:36.638Z,85.75
2022-12-24T02:35:10.674Z,85.17
2022-12-24T02:37:41.220Z,85.90
2022-12-24T02:40:16.753Z,86.27
2022-12-24T02:42:52.107Z,85.71
2022-12-24T02:45:23.969Z,86.04
2022-12-24T02:47:52.815Z,85.85
2022-12-24T02:50:20.724Z,84.86
2022-12-24T02:52:48.979Z,83.67
2022-12-24T02:55:19.213Z,84.27
2022-12-24T02:58:04.583Z,84.38
2022-12-24T03:00:45.988Z,84.59
2022-12-24T03:03:36.263Z,84.09
2022-12-24T03:06:13.629Z,84.22
2022-12-24T03:08:48.866Z,83.65
2022-12-24T03:11:16.879Z,83.52
2022-12-24T03:13:45.206Z,84.26
2022-12-24T03:16:17.776Z,83.56
2022-12-24T03:18:48.631Z,83.70
2022-12-24T03:21:21.899Z,83.60
2022-12-24T03:23:49.624Z,83.53
2022-12-24T03:26:19.732Z,83.22
2022-12-24T03:28:48.067Z,83.29
2022-12-24T03:31:18.549Z,83.69
2022-12-24T03:33:46.476Z,84.05
2022-12-24T03:36:14.620Z,84.10
2022-12-24T03:38:42.329Z,84.23
2022-12-24T03:41:10.021Z,84.10
2022-12-24T03:43:37.932Z,84.10
2022-12-24T03:46:07.211Z,83.97
2022-12-24T03:48:36.492Z,84.34
2022-12-24T03:51:05.138Z,84.17
2022-12-24T03:53:33.078Z,83.80
2022-12-24T03:56:00.627Z,83.71
2022-12-24T03:58:28.295Z,83.83
2022-12-24T04:00:56.166Z,83.24
2022-12-24T04:03:23.847Z,83.46
2022-12-24T04:06:02.913Z,83.38
2022-12-24T04:08:30.477Z,83.33
2022-12-24T04:10:57.988Z,83.67
2022-12-24T04:13:25.795Z,83.39
2022-12-24T04:15:59.134Z,83.30
2022-12-24T04:18:27.029Z,83.39
2022-12-24T04:20:55.057Z,83.72
2022-12-24T04:23:26.681Z,84.33
2022-12-24T04:25:54.222Z,84.60
2022-12-24T04:28:21.810Z,84.25
2022-12-24T04:30:49.303Z,85.07
2022-12-24T04:33:16.982Z,85.28
2022-12-24T04:35:44.467Z,85.07
2022-12-24T04:38:12.070Z,85.45
2022-12-24T04:40:40.870Z,85.52
2022-12-24T04:43:08.410Z,85.42
2022-12-24T04:45:35.983Z,85.50
2022-12-24T04:48:03.865Z,85.66
2022-12-24T04:50:31.406Z,85.33
2022-12-24T04:52:59.680Z,85.90
2022-12-24T04:55:28.768Z,85.56
2022-12-24T04:57:57.654Z,85.03
2022-12-24T05:00:25.283Z,85.41
2022-12-24T05:02:54.178Z,84.80
2022-12-24T05:05:21.809Z,85.42
2022-12-24T05:07:49.335Z,85.07
2022-12-24T05:10:16.937Z,84.72
2022-12-24T05:12:44.485Z,85.21
2022-12-24T05:15:13.609Z,85.55
2022-12-24T05:17:41.109Z,85.69
2022-12-24T05:20:11.789Z,85.92
2022-12-24T05:22:57.207Z,86.54
2022-12-24T05:25:42.513Z,87.37
2022-12-24T05:28:10.082Z,87.79
2022-12-24T05:30:39.079Z,87.41
2022-12-24T05:33:06.606Z,88.92
2022-12-24T05:35:34.355Z,89.11
2022-12-24T05:38:01.912Z,89.73
2022-12-24T05:40:29.447Z,90.36
2022-12-24T05:42:56.963Z,90.46
2022-12-24T05:45:24.769Z,90.67
2022-12-24T05:47:53.635Z,91.03
2022-12-24T05:50:21.107Z,91.08
2022-12-24T05:52:48.616Z,92.22
2022-12-24T05:55:16.250Z,92.57
2022-12-24T05:57:43.808Z,92.56
2022-12-24T06:00:11.933Z,92.82
2022-12-24T06:02:39.500Z,92.62
2022-12-24T06:05:09.512Z,92.08
2022-12-24T06:07:37.139Z,91.56
2022-12-24T06:10:05.327Z,91.24
2022-12-24T06:12:32.871Z,91.36
2022-12-24T06:15:00.427Z,90.09
2022-12-24T06:17:27.992Z,90.46
2022-12-24T06:19:55.781Z,90.43
2022-12-24T06:22:24.877Z,90.84
2022-12-24T06:24:52.410Z,91.30
2022-12-24T06:27:20.248Z,90.82
2022-12-24T06:29:47.796Z,91.45
2022-12-24T06:32:15.308Z,91.40
2022-12-24T06:34:42.876Z,91.09
2022-12-24T06:37:18.129Z,91.11
2022-12-24T06:39:47.246Z,91.17
2022-12-24T06:42:15.017Z,91.43
2022-12-24T06:44:42.635Z,91.56
2022-12-24T06:47:10.171Z,91.41
2022-12-24T06:49:37.992Z,91.86
2022-12-24T06:52:05.746Z,91.36
2022-12-24T06:54:33.490Z,91.25
2022-12-24T06:57:02.335Z,91.31
2022-12-24T06:59:29.829Z,91.03
2022-12-24T07:01:57.517Z,91.60
2022-12-24T07:04:25.185Z,90.83
2022-12-24T07:06:52.779Z,90.99
2022-12-24T07:09:21.364Z,91.85
2022-12-24T07:11:48.936Z,91.68
2022-12-24T07:14:17.927Z,92.11
2022-12-24T07:16:45.502Z,92.28
2022-12-24T07:19:13.673Z,92.59
2022-12-24T07:21:41.494Z,92.54
2022-12-24T07:24:09.107Z,92.44
2022-12-24T07:26:36.669Z,92.10
2022-12-24T07:29:04.387Z,91.70
2022-12-24T07:31:33.632Z,92.05
2022-12-24T07:34:02.278Z,91.91
2022-12-24T07:36:30.311Z,91.34
2022-12-24T07:39:00.032Z,91.15
2022-12-24T07:41:27.838Z,90.35
2022-12-24T07:43:55.408Z,90.22
2022-12-24T07:46:23.044Z,90.27
2022-12-24T07:48:51.950Z,89.97
2022-12-24T07:51:19.482Z,89.99
2022-12-24T07:53:48.854Z,90.39
2022-12-24T07:56:16.673Z,89.90
2022-12-24T07:58:44.460Z,90.03
2022-12-24T08:01:12.545Z,90.18
2022-12-24T08:03:40.446Z,90.55
2022-12-24T08:06:10.157Z,90.02
2022-12-24T08:08:38.135Z,90.19
2022-12-24T08:11:07.645Z,89.43
2022-12-24T08:13:35.664Z,89.75
2022-12-24T08:16:03.496Z,89.70
2022-12-24T08:18:31.103Z,89.44
2022-12-24T08:20:58.837Z,89.73
2022-12-24T08:23:27.724Z,89.09
2022-12-24T08:25:55.285Z,88.51
2022-12-24T08:28:22.830Z,88.09
2022-12-24T08:30:52.341Z,87.61
2022-12-24T08:33:20.562Z,87.10
2022-12-24T08:35:49.609Z,86.80
2022-12-24T08:38:17.971Z,87.09
2022-12-24T08:40:49.704Z,88.02
2022-12-24T08:43:19.066Z,87.77
2022-12-24T08:45:48.101Z,88.23
2022-12-24T08:48:15.926Z,88.26
2022-12-24T08:50:43.801Z,88.52
2022-12-24T08:53:11.887Z,88.66
2022-12-24T08:55:39.720Z,89.48
2022-12-24T08:58:11.883Z,90.37
2022-12-24T09:00:39.622Z,91.50
2022-12-24T09:03:07.539Z,92.21
2022-12-24T09:05:35.561Z,93.91
2022-12-24T09:08:03.163Z,94.24
2022-12-24T09:10:30.809Z,94.70
2022-12-24T09:12:58.492Z,95.22
2022-12-24T09:15:27.554Z,95.57
2022-12-24T09:17:55.213Z,96.88
2022-12-24T09:20:22.932Z,97.63
2022-12-24T09:22:52.107Z,97.98
2022-12-24T09:25:19.865Z,98.01
2022-12-24T09:27:47.673Z,97.63
2022-12-24T09:30:16.351Z,97.46
2022-12-24T09:32:45.452Z,97.75
2022-12-24T09:35:13.105Z,97.47
2022-12-24T09:37:40.706Z,95.70
2022-12-24T09:40:19.651Z,94.26
2022-12-24T09:42:53.593Z,94.12
2022-12-24T09:45:25.603Z,94.11
2022-12-24T09:47:58.527Z,94.22
2022-12-24T09:50:35.787Z,94.71
2022-12-24T09:53:09.631Z,95.40
2022-12-24T09:55:43.812Z,96.37
2022-12-24T09:58:20.914Z,96.12
2022-12-24T10:00:50.326Z,96.53
2022-12-24T10:03:19.836Z,96.64
2022-12-24T10:05:56.981Z,96.04
2022-12-24T10:08:33.157Z,95.94
2022-12-24T10:11:08.632Z,95.69
2022-12-24T10:13:51.610Z,95.16
2022-12-24T10:16:25.491Z,95.00
2022-12-24T10:19:03.645Z,95.14
2022-12-24T10:21:44.376Z,94.98
2022-12-24T10:24:17.427Z,95.75
2022-12-24T10:26:46.601Z,96.06
2022-12-24T10:29:17.877Z,96.38
2022-12-24T10:31:51.672Z,96.09
2022-12-24T10:34:24.353Z,95.72
2022-12-24T10:36:52.575Z,94.75
2022-12-24T10:39:22.940Z,93.83
2022-12-24T10:41:53.021Z,93.49
2022-12-24T10:44:24.693Z,93.09
2022-12-24T10:46:52.588Z,93.02
2022-12-24T10:49:32.893Z,91.69
2022-12-24T10:52:05.019Z,91.04
2022-12-24T10:54:39.188Z,89.84
2022-12-24T10:57:26.045Z,88.86
2022-12-24T10:59:55.848Z,88.85
2022-12-24T11:02:30.412Z,89.14
2022-12-24T11:05:00.449Z,88.88
2022-12-24T11:07:30.603Z,89.01
2022-12-24T11:09:59.716Z,88.96
2022-12-24T11:12:29.170Z,88.36
2022-12-24T11:15:08.519Z,88.13
2022-12-24T11:17:36.767Z,87.70
2022-12-24T11:20:08.344Z,87.50
2022-12-24T11:22:36.036Z,87.63
2022-12-24T11:25:08.884Z,87.46
2022-12-24T11:27:47.146Z,87.35
2022-12-24T11:30:27.994Z,87.03
2022-12-24T11:33:18.825Z,85.49
2022-12-24T11:35:52.712Z,85.62
2022-12-24T11:38:23.221Z,85.36
2022-12-24T11:41:01.236Z,84.89
2022-12-24T11:43:45.322Z,85.19
2022-12-24T11:46:30.393Z,84.63
2022-12-24T11:49:22.015Z,85.24
2022-12-24T11:52:20.592Z,83.01
2022-12-24T11:55:00.720Z,83.00
2022-12-24T11:57:37.226Z,82.66
2022-12-24T12:00:06.052Z,82.32
2022-12-24T12:02:39.227Z,81.28
2022-12-24T12:05:13.629Z,80.61
2022-12-24T12:07:47.673Z,80.90
2022-12-24T12:10:20.060Z,81.91
2022-12-24T12:12:51.299Z,82.47
2022-12-24T12:15:24.252Z,83.88
2022-12-24T12:17:59.878Z,83.87
2022-12-24T12:20:31.492Z,84.22
2022-12-24T12:23:05.020Z,83.42
2022-12-24T12:25:38.979Z,83.10
2022-12-24T12:28:14.257Z,84.30
2022-12-24T12:30:44.279Z,83.88
2022-12-24T12:33:21.665Z,84.22
2022-12-24T12:35:51.070Z,84.34
2022-12-24T12:38:25.396Z,84.13
2022-12-24T12:41:15.845Z,83.26
2022-12-24T12:44:03.016Z,83.41
2022-12-24T12:46:41.134Z,84.21
2022-12-24T12:49:19.864Z,85.04
2022-12-24T12:51:56.226Z,85.94
2022-12-24T12:54:39.686Z,85.50
2022-12-24T12:57:12.238Z,84.47
2022-12-24T12:59:45.188Z,83.90
2022-12-24T13:02:26.206Z,84.28
2022-12-24T13:05:23.709Z,83.46
2022-12-24T13:08:03.446Z,83.01
2022-12-24T13:11:03.287Z,84.02
2022-12-24T13:13:41.223Z,84.33
2022-12-24T13:16:37.499Z,85.42
2022-12-24T13:19:17.225Z,86.45
2022-12-24T13:21:48.712Z,86.45
2022-12-24T13:24:19.361Z,87.11
2022-12-24T13:27:04.891Z,87.22
2022-12-24T13:29:42.949Z,87.26
2022-12-24T13:32:39.874Z,88.29
2022-12-24T13:35:37.516Z,88.88
2022-12-24T13:38:45.657Z,88.58
2022-12-24T13:41:52.818Z,88.04
2022-12-24T13:44:32.501Z,88.38
2022-12-24T13:47:04.943Z,87.99
2022-12-24T13:49:36.076Z,88.58
2022-12-24T13:52:15.122Z,89.55
2022-12-24T13:54:47.180Z,89.05
2022-12-24T13:57:32.944Z,89.46
2022-12-24T14:00:08.589Z,89.67
2022-12-24T14:02:42.162Z,90.17
2022-12-24T14:05:22.312Z,90.39
2022-12-24T14:07:51.061Z,91.07
2022-12-24T14:10:24.870Z,91.19
2022-12-24T14:12:53.872Z,91.41
2022-12-24T14:16:04.262Z,91.78
2022-12-24T14:18:36.767Z,91.88
2022-12-24T14:21:06.885Z,91.95
2022-12-24T14:23:43.381Z,92.24
2022-12-24T14:26:16.452Z,92.38
2022-12-24T14:28:48.314Z,92.44
2022-12-24T14:31:17.922Z,92.85
2022-12-24T14:33:47.621Z,93.17
2022-12-24T14:36:19.600Z,93.67
2022-12-24T14:38:47.678Z,94.02
2022-12-24T14:41:26.804Z,93.85
2022-12-24T14:44:03.581Z,94.76
2022-12-24T14:46:37.676Z,95.17
2022-12-24T14:49:17.448Z,95.35
2022-12-24T14:51:56.989Z,95.13
2022-12-24T14:54:38.280Z,94.82
2022-12-24T14:57:29.799Z,94.55
2022-12-24T14:59:58.747Z,95.05
2022-12-24T15:02:46.434Z,94.83
2022-12-24T15:05:19.011Z,94.95
2022-12-24T15:07:51.920Z,95.15
2022-12-24T15:10:32.146Z,94.90
2022-12-24T15:13:04.980Z,95.00
2022-12-24T15:15:33.772Z,95.71
2022-12-24T15:18:03.008Z,96.72
2022-12-24T15:20:32.554Z,97.10
2022-12-24T15:23:00.334Z,97.93
2022-12-24T15:25:30.274Z,98.36
2022-12-24T15:27:58.537Z,98.59
2022-12-24T15:30:28.094Z,99.03
2022-12-24T15:32:57.777Z,99.64
2022-12-24T15:35:50.098Z,100.00
2022-12-24T15:38:33.959Z,100.00
2022-12-24T15:41:03.569Z,100.00
2022-12-24T15:43:32.595Z,100.00
2022-12-24T15:46:01.411Z,100.00
2022-12-24T15:48:32.822Z,100.00
2022-12-24T15:51:07.784Z,100.00
2022-12-24T15:53:40.581Z,100.00
2022-12-24T15:56:12.122Z,100.00
2022-12-24T15:58:42.311Z,100.00
2022-12-24T16:01:29.273Z,100.00
2022-12-24T16:04:02.807Z,100.00
2022-12-24T16:06:53.279Z,100.00
2022-12-24T16:09:40.403Z,100.00
2022-12-24T16:12:16.520Z,100.00
2022-12-24T16:14:48.115Z,100.00
2022-12-24T16:17:20.484Z,100.00
2022-12-24T16:19:51.003Z,100.00
2022-12-24T16:22:35.281Z,100.00
2022-12-24T16:25:16.105Z,100.00
2022-12-24T16:27:45.975Z,100.00
2022-12-24T16:30:13.956Z,100.00
2022-12-24T16:32:42.869Z,100.00
2022-12-24T16:35:23.941Z,100.00
2022-12-24T16:37:53.086Z,100.00
2022-12-24T16:40:26.525Z,100.00
2022-12-24T16:43:12.955Z,100.00
2022-12-24T16:45:40.641Z,100.00
2022-12-24T16:48:09.698Z,100.00
2022-12-24T16:50:37.256Z,100.00
2022-12-24T16:53:06.192Z,100.00
2022-12-24T16:55:33.729Z,100.00
2022-12-24T16:58:01.316Z,100.00
2022-12-24T17:00:28.905Z,100.00
2022-12-24T17:02:56.735Z,100.00
2022-12-24T17:05:24.433Z,100.00
2022-12-24T17:07:52.431Z,100.00
2022-12-24T17:10:21.312Z,100.00
2022-12-24T17:12:48.921Z,100.00
2022-12-24T17:15:16.543Z,100.00
2022-12-24T17:17:44.083Z,100.00
2022-12-24T17:20:12.296Z,100.00
2022-12-24T17:22:40.419Z,100.00
2022-12-24T17:25:09.412Z,100.00
2022-12-24T17:27:38.823Z,100.00
2022-12-24T17:30:07.554Z,100.00
2022-12-24T17:32:37.196Z,100.00
2022-12-24T17:35:05.208Z,100.00
2022-12-24T17:37:32.802Z,100.00
2022-12-24T17:40:00.404Z,100.00
2022-12-24T17:42:28.016Z,100.00
2022-12-24T17:44:56.896Z,100.00
2022-12-24T17:47:24.535Z,100.00
2022-12-24T17:49:52.066Z,100.00
2022-12-24T17:52:20.633Z,100.00
2022-12-24T17:54:48.206Z,100.00
2022-12-24T17:57:15.916Z,100.00
2022-12-24T17:59:48.208Z,100.00
2022-12-24T18:02:18.270Z,100.00
2022-12-24T18:04:46.198Z,100.00
2022-12-24T18:07:13.775Z,100.00
2022-12-24T18:09:45.577Z,100.00
2022-12-24T18:12:13.589Z,100.00
2022-12-24T18:14:41.181Z,100.00
2022-12-24T18:17:09.080Z,100.00
2022-12-24T18:19:37.979Z,100.00
2022-12-24T18:22:07.869Z,100.00
2022-12-24T18:24:35.448Z,100.00
2022-12-24T18:27:03.506Z,100.00
2022-12-24T18:29:31.075Z,100.00
2022-12-24T18:31:58.783Z,100.00
2022-12-24T18:34:26.408Z,100.00
2022-12-24T18:36:55.856Z,100.00
2022-12-24T18:39:23.893Z,100.00
2022-12-24T18:41:51.792Z,100.00
2022-12-24T18:44:24.914Z,100.00
2022-12-24T18:46:53.365Z,100.00
2022-12-24T18:49:22.385Z,100.00
2022-12-24T18:51:50.417Z,100.00
2022-12-24T18:54:21.879Z,100.00
2022-12-24T18:56:51.115Z,100.00
2022-12-24T18:59:19.079Z,100.00
2022-12-24T19:01:46.890Z,100.00
2022-12-24T19:04:15.019Z,100.00
2022-12-24T19:06:47.260Z,100.00
2022-12-24T19:09:21.690Z,100.00
2022-12-24T19:11:49.533Z,100.00
2022-12-24T19:14:20.002Z,100.00
2022-12-24T19:16:47.628Z,100.00
2022-12-24T19:19:15.320Z,100.00
2022-12-24T19:21:42.848Z,100.00
2022-12-24T19:24:10.853Z,100.00
2022-12-24T19:26:42.171Z,100.00
2022-12-24T19:29:09.712Z,100.00
2022-12-24T19:31:37.373Z,100.00
2022-12-24T19:34:05.268Z,100.00
2022-12-24T19:36:33.818Z,100.00
2022-12-24T19:39:01.402Z,100.00
2022-12-24T19:41:31.191Z,100.00
2022-12-24T19:44:02.789Z,100.00
2022-12-24T19:46:32.545Z,100.00
2022-12-24T19:49:01.849Z,100.00
2022-12-24T19:51:30.116Z,100.00
2022-12-24T19:53:59.467Z,100.00
2022-12-24T19:56:29.289Z,100.00
2022-12-24T19:58:58.430Z,100.00
2022-12-24T20:01:30.205Z,100.00
2022-12-24T20:03:58.004Z,100.00
2022-12-24T20:06:27.847Z,100.00
2022-12-24T20:08:59.782Z,100.00
2022-12-24T20:11:27.504Z,100.00
2022-12-24T20:13:58.336Z,100.00
2022-12-24T20:16:27.935Z,100.00
2022-12-24T20:18:57.228Z,100.00
2022-12-24T20:21:25.820Z,100.00
2022-12-24T20:23:53.788Z,100.00
2022-12-24T20:26:23.727Z,100.00
2022-12-24T20:28:51.634Z,100.00
2022-12-24T20:31:22.452Z,100.00
2022-12-24T20:33:53.654Z,100.00
2022-12-24T20:36:23.174Z,100.00
2022-12-24T20:38:51.348Z,100.00
2022-12-24T20:41:23.828Z,100.00
2022-12-24T20:43:51.943Z,100.00
2022-12-24T20:46:21.397Z,100.00
2022-12-24T20:48:52.189Z,100.00
2022-12-24T20:51:24.576Z,100.00
2022-12-24T20:53:53.866Z,100.00
2022-12-24T20:56:21.539Z,100.00
2022-12-24T20:58:49.475Z,100.00
2022-12-24T21:01:19.349Z,100.00
2022-12-24T21:03:47.327Z,100.00
2022-12-24T21:06:17.859Z,100.00
2022-12-24T21:08:46.005Z,100.00
2022-12-24T21:11:31.171Z,100.00
2022-12-24T21:13:58.880Z,100.00
2022-12-24T21:16:26.463Z,100.00
2022-12-24T21:18:54.215Z,100.00
2022-12-24T21:21:23.112Z,100.00
2022-12-24T21:23:50.696Z,100.00
2022-12-24T21:26:18.404Z,100.00
2022-12-24T21:28:46.057Z,100.00
2022-12-24T21:31:15.237Z,100.00
2022-12-24T21:33:43.584Z,100.00
2022-12-24T21:36:12.887Z,100.00
2022-12-24T21:38:42.444Z,100.00
2022-12-24T21:41:12.380Z,100.00
2022-12-24T21:43:40.313Z,100.00
2022-12-24T21:46:09.959Z,100.00
2022-12-24T21:48:56.135Z,100.00
2022-12-24T21:51:24.945Z,100.00
2022-12-24T21:54:12.831Z,100.00
2022-12-24T21:56:54.792Z,100.00
2022-12-24T21:59:26.610Z,100.00
2022-12-24T22:01:55.177Z,100.00
2022-12-24T22:04:23.033Z,100.00
2022-12-24T22:07:08.414Z,100.00
2022-12-24T22:09:56.737Z,100.00
2022-12-24T22:12:24.341Z,100.00
2022-12-24T22:14:52.336Z,100.00
2022-12-24T22:17:25.008Z,100.00
2022-12-24T22:19:53.466Z,100.00
2022-12-24T22:22:21.628Z,100.00
2022-12-24T22:24:50.493Z,100.00
2022-12-24T22:27:18.015Z,100.00
2022-12-24T22:29:45.647Z,100.00
2022-12-24T22:32:13.259Z,100.00
2022-12-24T22:34:40.829Z,100.00
2022-12-24T22:37:08.397Z,100.00
2022-12-24T22:39:36.034Z,100.00
2022-12-24T22:42:05.152Z,100.00
2022-12-24T22:44:32.748Z,100.00
2022-12-24T22:47:00.278Z,100.00
2022-12-24T22:49:27.940Z,100.00
2022-12-24T22:51:57.086Z,100.00
2022-12-24T22:54:24.720Z,100.00
2022-12-24T22:56:53.360Z,100.00
2022-12-24T22:59:22.298Z,100.00
2022-12-24T23:01:52.492Z,100.00
2022-12-24T23:04:20.672Z,100.00
2022-12-24T23:06:48.331Z,100.00
2022-12-24T23:09:18.527Z,100.00
2022-12-24T23:11:46.271Z,100.00
2022-12-24T23:14:35.797Z,100.00
2022-12-24T23:17:05.548Z,100.00
2022-12-24T23:19:33.943Z,100.00
2022-12-24T23:22:02.322Z,100.00
2022-12-24T23:24:30.497Z,100.00
2022-12-24T23:27:01.351Z,100.00
2022-12-24T23:29:30.112Z,100.00
2022-12-24T23:31:57.765Z,100.00
2022-12-24T23:34:27.284Z,100.00
2022-12-24T23:36:54.788Z,100.00
2022-12-24T23:39:22.640Z,100.00
2022-12-24T23:41:50.207Z,100.00
2022-12-24T23:44:17.810Z,100.00
2022-12-24T23:46:45.478Z,100.00
2022-12-24T23:49:15.046Z,100.00
2022-12-24T23:51:43.937Z,100.00
2022-12-24T23:54:11.451Z,100.00
2022-12-24T23:56:39.049Z,100.00
2022-12-24T23:59:06.583Z,100.00
